createdAt,value
2023-02-04T00:02:05.573Z,58.80
2023-02-04T00:07:10.905Z,40.90
2023-02-04T00:12:16.601Z,41.33
2023-02-04T00:17:22.043Z,45.83
2023-02-04T00:22:29.646Z,42.83
2023-02-04T00:27:34.878Z,48.60
2023-02-04T00:32:40.801Z,39.43
2023-02-04T00:37:46.369Z,44.90
2023-02-04T00:42:51.653Z,45.73
2023-02-04T00:47:57.075Z,41.33
2023-02-04T00:53:03.496Z,43.00
2023-02-04T00:58:09.143Z,44.47
2023-02-04T01:03:14.854Z,43.80
2023-02-04T01:08:20.202Z,50.83
2023-02-04T01:13:25.409Z,49.15
2023-02-04T01:18:33.419Z,43.45
2023-02-04T01:23:38.984Z,43.75
2023-02-04T01:28:46.247Z,34.35
2023-02-04T01:33:55.156Z,40.35
2023-02-04T01:39:03.213Z,32.38
2023-02-04T01:44:11.102Z,33.03
2023-02-04T01:49:16.991Z,37.42
2023-02-04T01:54:24.186Z,38.70
2023-02-04T01:59:30.818Z,30.13
2023-02-04T02:04:38.272Z,27.05
2023-02-04T02:09:48.324Z,27.10
2023-02-04T02:14:54.367Z,30.67
2023-02-04T02:20:03.316Z,28.90
2023-02-04T02:25:22.061Z,29.40
2023-02-04T02:30:34.832Z,30.08
2023-02-04T02:35:54.815Z,32.53
2023-02-04T02:41:05.323Z,35.00
2023-02-04T02:46:13.400Z,34.08
2023-02-04T02:51:21.991Z,37.28
2023-02-04T02:56:33.029Z,39.92
2023-02-04T03:03:00.658Z,33.50
2023-02-04T03:07:14.913Z,31.42
2023-02-04T03:12:25.546Z,44.30
2023-02-04T03:17:34.199Z,40.13
2023-02-04T03:25:50.833Z,42.55
2023-02-04T03:40:55.286Z,52.90
2023-02-04T03:46:15.470Z,49.30
2023-02-04T03:51:34.132Z,49.55
2023-02-04T03:56:43.254Z,50.88
2023-02-04T04:01:50.958Z,44.78
2023-02-04T04:07:00.517Z,51.72
2023-02-04T04:12:14.118Z,44.28
2023-02-04T04:17:28.559Z,56.05
2023-02-04T04:22:35.409Z,71.03
2023-02-04T04:27:54.638Z,52.22
2023-02-04T04:33:01.852Z,80.13
2023-02-04T04:38:09.030Z,55.00
2023-02-04T04:43:21.712Z,56.15
2023-02-04T04:48:32.322Z,48.42
2023-02-04T04:53:48.281Z,43.88
2023-02-04T04:59:27.575Z,65.35
2023-02-04T05:04:44.125Z,87.47
2023-02-04T05:09:55.970Z,64.15
2023-02-04T05:15:08.802Z,71.32
2023-02-04T05:20:35.737Z,84.30
2023-02-04T05:25:50.030Z,82.50
2023-02-04T05:31:12.012Z,76.15
2023-02-04T05:36:32.968Z,108.60
2023-02-04T05:41:44.347Z,88.25
2023-02-04T05:47:05.982Z,104.20
2023-02-04T05:59:27.084Z,135.75
2023-02-04T06:04:40.805Z,98.22
2023-02-04T06:10:01.128Z,103.22
2023-02-04T06:23:32.810Z,143.65
2023-02-04T06:28:49.884Z,91.63
2023-02-04T06:34:09.596Z,112.53
2023-02-04T06:40:30.649Z,109.93
2023-02-04T06:45:40.830Z,150.35
2023-02-04T06:50:51.041Z,112.75
2023-02-04T06:56:09.946Z,105.93
2023-02-04T07:01:20.407Z,80.00
2023-02-04T07:06:27.445Z,139.85
2023-02-04T07:18:52.524Z,88.88
2023-02-04T07:24:07.804Z,120.57
2023-02-04T07:29:25.672Z,114.35
2023-02-04T07:34:35.296Z,148.55
2023-02-04T07:39:42.650Z,111.13
2023-02-04T07:51:28.279Z,144.15
2023-02-04T07:56:46.700Z,123.78
2023-02-04T08:02:18.296Z,126.00
2023-02-04T08:07:35.326Z,152.40
2023-02-04T08:19:39.876Z,112.80
2023-02-04T08:25:49.038Z,99.78
2023-02-04T08:31:06.324Z,143.02
2023-02-04T08:37:54.261Z,97.63
2023-02-04T08:43:04.944Z,101.97
2023-02-04T08:48:14.084Z,155.20
2023-02-04T08:53:20.691Z,110.70
2023-02-04T08:58:32.273Z,157.52
2023-02-04T09:03:41.963Z,138.40
2023-02-04T09:14:56.305Z,132.80
2023-02-04T09:20:02.313Z,131.85
2023-02-04T09:25:16.697Z,112.43
2023-02-04T09:30:28.720Z,127.45
2023-02-04T09:35:36.712Z,162.38
2023-02-04T09:40:52.235Z,98.18
2023-02-04T09:52:19.980Z,91.75
2023-02-04T09:57:30.140Z,83.50
2023-02-04T10:02:44.612Z,125.50
2023-02-04T10:07:57.002Z,111.68
2023-02-04T10:13:05.410Z,130.63
2023-02-04T10:18:15.242Z,107.45
2023-02-04T10:23:27.034Z,118.40
2023-02-04T10:28:41.684Z,122.57
2023-02-04T10:33:50.075Z,142.13
2023-02-04T10:39:09.192Z,137.23
2023-02-04T11:03:26.955Z,130.57
2023-02-04T11:24:29.232Z,192.45
2023-02-04T11:29:39.716Z,145.32
2023-02-04T11:34:54.336Z,120.97
2023-02-04T11:40:03.644Z,109.53
2023-02-04T11:45:34.702Z,120.35
2023-02-04T11:50:43.645Z,107.68
2023-02-04T11:55:50.106Z,108.95
2023-02-04T12:00:56.241Z,115.60
2023-02-04T12:06:05.106Z,97.05
2023-02-04T12:11:37.613Z,99.85
2023-02-04T12:16:53.157Z,121.72
2023-02-04T12:22:04.531Z,110.50
2023-02-04T12:27:11.718Z,95.03
2023-02-04T12:32:45.552Z,98.15
2023-02-04T12:37:52.461Z,71.25
2023-02-04T12:43:03.864Z,82.80
2023-02-04T12:48:18.066Z,95.53
2023-02-04T12:53:40.886Z,97.18
2023-02-04T13:05:06.741Z,118.13
2023-02-04T13:10:16.579Z,92.55
2023-02-04T13:28:59.269Z,100.45
2023-02-04T13:34:17.254Z,72.55
2023-02-04T13:39:30.551Z,73.00
2023-02-04T13:44:54.167Z,80.63
2023-02-04T13:50:15.071Z,77.63
2023-02-04T14:00:52.076Z,70.57
2023-02-04T14:16:53.068Z,76.78
2023-02-04T14:21:58.936Z,74.10
2023-02-04T14:27:16.313Z,73.82
2023-02-04T14:37:44.498Z,70.70
2023-02-04T14:42:54.931Z,77.97
2023-02-04T14:48:05.143Z,82.38
2023-02-04T14:53:14.263Z,79.22
2023-02-04T14:58:30.849Z,84.68
2023-02-04T15:03:51.997Z,79.85
2023-02-04T15:09:05.651Z,89.97
2023-02-04T15:14:16.251Z,75.03
2023-02-04T15:19:25.235Z,65.75
2023-02-04T15:24:35.723Z,70.45
2023-02-04T15:29:43.395Z,61.08
2023-02-04T15:35:00.379Z,70.20
2023-02-04T15:40:11.602Z,53.63
2023-02-04T15:45:17.519Z,49.25
2023-02-04T15:50:23.581Z,63.33
2023-02-04T15:55:31.777Z,62.45
2023-02-04T16:00:39.083Z,55.38
2023-02-04T16:05:45.089Z,55.45
2023-02-04T16:19:50.400Z,54.30
2023-02-04T16:57:01.667Z,46.95
2023-02-04T17:08:42.489Z,45.58
2023-02-04T17:13:51.192Z,35.03
2023-02-04T17:18:58.838Z,39.40
2023-02-04T17:24:07.738Z,39.35
2023-02-04T17:29:20.489Z,37.03
2023-02-04T17:40:00.566Z,39.03
2023-02-04T17:45:06.314Z,39.45
2023-02-04T17:50:13.102Z,35.43
2023-02-04T18:00:49.284Z,27.42
2023-02-04T18:05:57.969Z,21.15
2023-02-04T18:11:04.599Z,31.27
2023-02-04T18:16:31.855Z,31.05
2023-02-04T18:21:40.569Z,30.88
2023-02-04T18:26:53.068Z,30.35
2023-02-04T18:32:21.358Z,31.00
2023-02-04T18:37:48.237Z,29.52
2023-02-04T18:43:20.948Z,26.67
2023-02-04T18:48:26.732Z,22.98
2023-02-04T18:53:32.237Z,30.23
2023-02-04T18:58:41.900Z,31.27
2023-02-04T19:03:53.216Z,30.17
2023-02-04T19:09:25.857Z,18.15
2023-02-04T19:14:42.525Z,30.25
2023-02-04T19:25:24.549Z,35.55
2023-02-04T19:30:30.267Z,34.63
2023-02-04T19:35:47.692Z,32.47
2023-02-04T19:40:57.171Z,39.70
2023-02-04T19:46:02.542Z,34.13
2023-02-04T19:51:30.922Z,36.00
2023-02-04T19:56:41.604Z,32.40
2023-02-04T20:01:47.144Z,31.48
2023-02-04T20:06:52.800Z,41.57
2023-02-04T20:12:11.473Z,62.37
2023-02-04T20:17:47.238Z,45.03
2023-02-04T20:23:03.953Z,66.68
2023-02-04T20:33:34.356Z,46.72
2023-02-04T20:38:42.715Z,44.50
2023-02-04T20:43:52.848Z,68.45
2023-02-04T20:48:59.322Z,57.03
2023-02-04T20:54:13.356Z,48.30
2023-02-04T20:59:36.986Z,53.80
2023-02-04T21:04:49.494Z,56.90
2023-02-04T21:09:54.720Z,68.15
2023-02-04T21:15:00.791Z,57.85
2023-02-04T21:20:07.203Z,64.45
2023-02-04T21:25:15.903Z,60.70
2023-02-04T21:30:22.572Z,52.10
2023-02-04T21:35:28.356Z,58.28
2023-02-04T21:40:35.149Z,54.95
2023-02-04T21:45:41.285Z,58.95
2023-02-04T21:50:46.823Z,58.67
2023-02-04T21:55:52.432Z,54.08
2023-02-04T22:00:57.892Z,52.00
2023-02-04T22:06:03.674Z,53.30
2023-02-04T22:11:09.049Z,53.90
2023-02-04T22:16:14.573Z,55.20
2023-02-04T22:21:20.124Z,49.70
2023-02-04T22:26:25.418Z,56.25
2023-02-04T22:31:30.912Z,55.20
2023-02-04T22:36:36.723Z,47.80
2023-02-04T22:41:42.591Z,52.57
2023-02-04T22:46:47.934Z,54.77
2023-02-04T22:51:53.556Z,53.23
2023-02-04T22:57:01.681Z,52.53
2023-02-04T23:02:07.073Z,46.13
2023-02-04T23:07:12.864Z,53.07
2023-02-04T23:12:18.465Z,46.53
2023-02-04T23:17:23.950Z,51.20
2023-02-04T23:22:29.665Z,50.63
2023-02-04T23:27:34.857Z,45.73
2023-02-04T23:32:40.148Z,51.13
2023-02-04T23:37:45.753Z,50.55
2023-02-04T23:42:50.958Z,46.97
2023-02-04T23:47:56.496Z,50.33
2023-02-04T23:53:01.846Z,49.57
2023-02-04T23:58:08.086Z,31.90
